sensor_id;sensor_type;location;lat;lon;timestamp;pressure;altitude;pressure_sealevel;temperature;humidity
54872;BME280;43914;57.680;11.982;2024-01-10T00:01:59;102650.20;;;-2.83;100.00
54872;BME280;43914;57.680;11.982;2024-01-10T00:04:25;102647.45;;;-2.85;100.00
54872;BME280;43914;57.680;11.982;2024-01-10T00:06:50;102648.70;;;-2.86;100.00
54872;BME280;43914;57.680;11.982;2024-01-10T00:09:16;102653.50;;;-2.88;100.00
54872;BME280;43914;57.680;11.982;2024-01-10T00:11:41;102649.98;;;-2.87;100.00
54872;BME280;43914;57.680;11.982;2024-01-10T00:14:07;102644.35;;;-2.88;100.00
54872;BME280;43914;57.680;11.982;2024-01-10T00:16:32;102644.80;;;-2.90;100.00
54872;BME280;43914;57.680;11.982;2024-01-10T00:18:58;102637.66;;;-2.92;100.00
54872;BME280;43914;57.680;11.982;2024-01-10T00:21:23;102641.44;;;-2.95;100.00
54872;BME280;43914;57.680;11.982;2024-01-10T00:23:49;102636.60;;;-2.98;100.00
54872;BME280;43914;57.680;11.982;2024-01-10T00:26:14;102636.50;;;-2.99;100.00
54872;BME280;43914;57.680;11.982;2024-01-10T00:28:40;102635.69;;;-3.02;100.00
54872;BME280;43914;57.680;11.982;2024-01-10T00:31:06;102633.67;;;-3.04;100.00
54872;BME280;43914;57.680;11.982;2024-01-10T00:33:31;102632.65;;;-3.11;100.00
54872;BME280;43914;57.680;11.982;2024-01-10T00:35:57;102626.61;;;-3.14;100.00
54872;BME280;43914;57.680;11.982;2024-01-10T00:38:22;102624.74;;;-3.16;100.00
54872;BME280;43914;57.680;11.982;2024-01-10T00:40:48;102623.63;;;-3.20;100.00
54872;BME280;43914;57.680;11.982;2024-01-10T00:43:13;102626.02;;;-3.24;100.00
54872;BME280;43914;57.680;11.982;2024-01-10T00:45:38;102626.48;;;-3.27;100.00
54872;BME280;43914;57.680;11.982;2024-01-10T00:48:04;102624.09;;;-3.29;100.00
54872;BME280;43914;57.680;11.982;2024-01-10T00:50:30;102624.69;;;-3.32;100.00
54872;BME280;43914;57.680;11.982;2024-01-10T00:52:55;102623.46;;;-3.38;100.00
54872;BME280;43914;57.680;11.982;2024-01-10T00:55:21;102622.23;;;-3.43;100.00
54872;BME280;43914;57.680;11.982;2024-01-10T00:57:46;102624.80;;;-3.47;100.00
54872;BME280;43914;57.680;11.982;2024-01-10T01:00:12;102625.27;;;-3.51;100.00
54872;BME280;43914;57.680;11.982;2024-01-10T01:02:38;102621.80;;;-3.53;100.00
54872;BME280;43914;57.680;11.982;2024-01-10T01:05:05;102619.20;;;-3.53;100.00
54872;BME280;43914;57.680;11.982;2024-01-10T01:07:32;102619.59;;;-3.54;100.00
54872;BME280;43914;57.680;11.982;2024-01-10T01:09:58;102622.59;;;-3.55;100.00
54872;BME280;43914;57.680;11.982;2024-01-10T01:12:24;102611.08;;;-3.57;100.00
54872;BME280;43914;57.680;11.982;2024-01-10T01:14:49;102608.49;;;-3.59;100.00
54872;BME280;43914;57.680;11.982;2024-01-10T01:17:15;102611.89;;;-3.61;100.00
54872;BME280;43914;57.680;11.982;2024-01-10T01:19:40;102617.16;;;-3.62;100.00
54872;BME280;43914;57.680;11.982;2024-01-10T01:22:05;102620.52;;;-3.63;100.00
54872;BME280;43914;57.680;11.982;2024-01-10T01:24:31;102616.23;;;-3.66;100.00
54872;BME280;43914;57.680;11.982;2024-01-10T01:26:57;102609.02;;;-3.71;100.00
54872;BME280;43914;57.680;11.982;2024-01-10T01:29:23;102607.01;;;-3.74;100.00
54872;BME280;43914;57.680;11.982;2024-01-10T01:31:49;102612.43;;;-3.73;100.00
54872;BME280;43914;57.680;11.982;2024-01-10T01:34:15;102613.33;;;-3.74;100.00
54872;BME280;43914;57.680;11.982;2024-01-10T01:36:40;102616.63;;;-3.73;100.00
54872;BME280;43914;57.680;11.982;2024-01-10T01:39:05;102614.17;;;-3.73;100.00
54872;BME280;43914;57.680;11.982;2024-01-10T01:41:31;102618.55;;;-3.73;100.00
54872;BME280;43914;57.680;11.982;2024-01-10T01:43:56;102621.02;;;-3.73;100.00
54872;BME280;43914;57.680;11.982;2024-01-10T01:46:22;102622.73;;;-3.73;100.00
54872;BME280;43914;57.680;11.982;2024-01-10T01:48:49;102623.65;;;-3.74;100.00
54872;BME280;43914;57.680;11.982;2024-01-10T01:51:17;102628.41;;;-3.75;100.00
54872;BME280;43914;57.680;11.982;2024-01-10T01:53:44;102631.94;;;-3.76;100.00
54872;BME280;43914;57.680;11.982;2024-01-10T01:56:14;102630.55;;;-3.77;100.00
54872;BME280;43914;57.680;11.982;2024-01-10T01:58:42;102625.61;;;-3.75;100.00
54872;BME280;43914;57.680;11.982;2024-01-10T02:01:09;102630.92;;;-3.71;100.00
54872;BME280;43914;57.680;11.982;2024-01-10T02:03:36;102627.44;;;-3.71;100.00
54872;BME280;43914;57.680;11.982;2024-01-10T02:06:02;102622.15;;;-3.70;100.00
54872;BME280;43914;57.680;11.982;2024-01-10T02:08:34;102620.05;;;-3.70;100.00
54872;BME280;43914;57.680;11.982;2024-01-10T02:11:02;102616.70;;;-3.69;100.00
54872;BME280;43914;57.680;11.982;2024-01-10T02:13:28;102621.20;;;-3.68;100.00
54872;BME280;43914;57.680;11.982;2024-01-10T02:15:54;102617.88;;;-3.68;100.00
54872;BME280;43914;57.680;11.982;2024-01-10T02:18:20;102619.06;;;-3.67;100.00
54872;BME280;43914;57.680;11.982;2024-01-10T02:20:45;102621.13;;;-3.66;100.00
54872;BME280;43914;57.680;11.982;2024-01-10T02:23:11;102626.90;;;-3.65;100.00
54872;BME280;43914;57.680;11.982;2024-01-10T02:25:38;102625.69;;;-3.66;100.00
54872;BME280;43914;57.680;11.982;2024-01-10T02:28:04;102615.92;;;-3.67;100.00
54872;BME280;43914;57.680;11.982;2024-01-10T02:30:30;102614.54;;;-3.68;100.00
54872;BME280;43914;57.680;11.982;2024-01-10T02:32:56;102610.56;;;-3.70;100.00
54872;BME280;43914;57.680;11.982;2024-01-10T02:35:21;102607.78;;;-3.70;100.00
54872;BME280;43914;57.680;11.982;2024-01-10T02:37:47;102605.95;;;-3.73;100.00
54872;BME280;43914;57.680;11.982;2024-01-10T02:40:15;102606.88;;;-3.76;100.00
54872;BME280;43914;57.680;11.982;2024-01-10T02:42:41;102609.78;;;-3.79;100.00
54872;BME280;43914;57.680;11.982;2024-01-10T02:45:07;102609.87;;;-3.82;100.00
54872;BME280;43914;57.680;11.982;2024-01-10T02:47:32;102609.54;;;-3.83;100.00
54872;BME280;43914;57.680;11.982;2024-01-10T02:49:58;102608.83;;;-3.82;100.00
54872;BME280;43914;57.680;11.982;2024-01-10T02:52:23;102610.43;;;-3.83;100.00
54872;BME280;43914;57.680;11.982;2024-01-10T02:54:49;102598.83;;;-3.87;100.00
54872;BME280;43914;57.680;11.982;2024-01-10T02:57:14;102589.30;;;-3.92;100.00
54872;BME280;43914;57.680;11.982;2024-01-10T02:59:40;102593.58;;;-3.95;100.00
54872;BME280;43914;57.680;11.982;2024-01-10T03:02:05;102597.66;;;-3.96;100.00
54872;BME280;43914;57.680;11.982;2024-01-10T03:04:30;102596.41;;;-3.96;100.00
54872;BME280;43914;57.680;11.982;2024-01-10T03:06:56;102600.14;;;-3.98;100.00
54872;BME280;43914;57.680;11.982;2024-01-10T03:09:22;102600.05;;;-4.00;100.00
54872;BME280;43914;57.680;11.982;2024-01-10T03:11:48;102593.83;;;-4.03;100.00
54872;BME280;43914;57.680;11.982;2024-01-10T03:14:14;102586.23;;;-4.08;100.00
54872;BME280;43914;57.680;11.982;2024-01-10T03:16:39;102589.86;;;-4.12;100.00
54872;BME280;43914;57.680;11.982;2024-01-10T03:19:05;102590.92;;;-4.12;100.00
54872;BME280;43914;57.680;11.982;2024-01-10T03:21:30;102590.60;;;-4.13;100.00
54872;BME280;43914;57.680;11.982;2024-01-10T03:24:00;102589.55;;;-4.13;100.00
54872;BME280;43914;57.680;11.982;2024-01-10T03:26:26;102581.21;;;-4.15;100.00
54872;BME280;43914;57.680;11.982;2024-01-10T03:28:53;102577.09;;;-4.18;100.00
54872;BME280;43914;57.680;11.982;2024-01-10T03:31:19;102577.28;;;-4.19;100.00
54872;BME280;43914;57.680;11.982;2024-01-10T03:33:44;102581.08;;;-4.24;100.00
54872;BME280;43914;57.680;11.982;2024-01-10T03:36:15;102583.33;;;-4.29;100.00
54872;BME280;43914;57.680;11.982;2024-01-10T03:38:40;102586.94;;;-4.33;100.00
54872;BME280;43914;57.680;11.982;2024-01-10T03:41:06;102586.54;;;-4.38;100.00
54872;BME280;43914;57.680;11.982;2024-01-10T03:43:31;102591.09;;;-4.38;100.00
54872;BME280;43914;57.680;11.982;2024-01-10T03:45:58;102590.38;;;-4.37;100.00
54872;BME280;43914;57.680;11.982;2024-01-10T03:48:23;102589.63;;;-4.35;100.00
54872;BME280;43914;57.680;11.982;2024-01-10T03:50:49;102588.95;;;-4.37;100.00
54872;BME280;43914;57.680;11.982;2024-01-10T03:53:15;102591.27;;;-4.38;100.00
54872;BME280;43914;57.680;11.982;2024-01-10T03:55:41;102589.39;;;-4.40;100.00
54872;BME280;43914;57.680;11.982;2024-01-10T03:58:06;102590.60;;;-4.40;100.00
54872;BME280;43914;57.680;11.982;2024-01-10T04:00:32;102580.77;;;-4.38;100.00
54872;BME280;43914;57.680;11.982;2024-01-10T04:02:58;102567.69;;;-4.40;100.00
54872;BME280;43914;57.680;11.982;2024-01-10T04:05:23;102568.84;;;-4.43;100.00
54872;BME280;43914;57.680;11.982;2024-01-10T04:07:51;102567.73;;;-4.47;100.00
54872;BME280;43914;57.680;11.982;2024-01-10T04:10:17;102565.48;;;-4.48;100.00
54872;BME280;43914;57.680;11.982;2024-01-10T04:12:44;102569.34;;;-4.50;100.00
54872;BME280;43914;57.680;11.982;2024-01-10T04:15:10;102576.14;;;-4.49;100.00
54872;BME280;43914;57.680;11.982;2024-01-10T04:17:36;102577.34;;;-4.47;100.00
54872;BME280;43914;57.680;11.982;2024-01-10T04:20:02;102577.34;;;-4.47;100.00
54872;BME280;43914;57.680;11.982;2024-01-10T04:22:28;102582.05;;;-4.47;100.00
54872;BME280;43914;57.680;11.982;2024-01-10T04:24:59;102578.84;;;-4.51;100.00
54872;BME280;43914;57.680;11.982;2024-01-10T04:27:27;102572.40;;;-4.53;100.00
54872;BME280;43914;57.680;11.982;2024-01-10T04:29:53;102565.63;;;-4.54;100.00
54872;BME280;43914;57.680;11.982;2024-01-10T04:32:19;102564.02;;;-4.54;100.00
54872;BME280;43914;57.680;11.982;2024-01-10T04:34:45;102562.70;;;-4.56;100.00
54872;BME280;43914;57.680;11.982;2024-01-10T04:37:10;102567.05;;;-4.56;100.00
54872;BME280;43914;57.680;11.982;2024-01-10T04:39:36;102563.25;;;-4.57;100.00
54872;BME280;43914;57.680;11.982;2024-01-10T04:42:03;102561.36;;;-4.58;100.00
54872;BME280;43914;57.680;11.982;2024-01-10T04:44:29;102558.88;;;-4.57;100.00
54872;BME280;43914;57.680;11.982;2024-01-10T04:46:55;102560.75;;;-4.55;100.00
54872;BME280;43914;57.680;11.982;2024-01-10T04:49:20;102563.73;;;-4.56;100.00
54872;BME280;43914;57.680;11.982;2024-01-10T04:51:46;102564.40;;;-4.55;100.00
54872;BME280;43914;57.680;11.982;2024-01-10T04:54:12;102563.84;;;-4.53;100.00
54872;BME280;43914;57.680;11.982;2024-01-10T04:56:37;102565.02;;;-4.50;100.00
54872;BME280;43914;57.680;11.982;2024-01-10T04:59:03;102571.02;;;-4.46;100.00
54872;BME280;43914;57.680;11.982;2024-01-10T05:01:29;102575.54;;;-4.45;100.00
54872;BME280;43914;57.680;11.982;2024-01-10T05:03:55;102568.34;;;-4.45;100.00
54872;BME280;43914;57.680;11.982;2024-01-10T05:06:20;102572.27;;;-4.41;100.00
54872;BME280;43914;57.680;11.982;2024-01-10T05:08:46;102573.79;;;-4.39;100.00
54872;BME280;43914;57.680;11.982;2024-01-10T05:11:11;102566.04;;;-4.37;100.00
54872;BME280;43914;57.680;11.982;2024-01-10T05:13:39;102564.77;;;-4.35;100.00
54872;BME280;43914;57.680;11.982;2024-01-10T05:16:05;102555.98;;;-4.33;100.00
54872;BME280;43914;57.680;11.982;2024-01-10T05:18:31;102545.39;;;-4.30;100.00
54872;BME280;43914;57.680;11.982;2024-01-10T05:20:57;102538.95;;;-4.32;100.00
54872;BME280;43914;57.680;11.982;2024-01-10T05:23:23;102543.57;;;-4.28;100.00
54872;BME280;43914;57.680;11.982;2024-01-10T05:25:49;102545.94;;;-4.25;100.00
54872;BME280;43914;57.680;11.982;2024-01-10T05:28:15;102539.91;;;-4.23;100.00
54872;BME280;43914;57.680;11.982;2024-01-10T05:30:41;102530.25;;;-4.21;100.00
54872;BME280;43914;57.680;11.982;2024-01-10T05:33:08;102531.38;;;-4.17;100.00
54872;BME280;43914;57.680;11.982;2024-01-10T05:35:34;102531.88;;;-4.16;100.00
54872;BME280;43914;57.680;11.982;2024-01-10T05:38:02;102529.31;;;-4.13;100.00
54872;BME280;43914;57.680;11.982;2024-01-10T05:40:30;102526.20;;;-4.08;100.00
54872;BME280;43914;57.680;11.982;2024-01-10T05:42:57;102529.88;;;-4.01;100.00
54872;BME280;43914;57.680;11.982;2024-01-10T05:45:25;102527.36;;;-3.99;100.00
54872;BME280;43914;57.680;11.982;2024-01-10T05:47:51;102530.26;;;-3.97;100.00
54872;BME280;43914;57.680;11.982;2024-01-10T05:50:17;102531.20;;;-3.93;100.00
54872;BME280;43914;57.680;11.982;2024-01-10T05:52:43;102529.90;;;-3.91;100.00
54872;BME280;43914;57.680;11.982;2024-01-10T05:55:09;102526.34;;;-3.88;100.00
54872;BME280;43914;57.680;11.982;2024-01-10T05:57:36;102521.65;;;-3.84;100.00
54872;BME280;43914;57.680;11.982;2024-01-10T06:00:03;102528.72;;;-3.80;100.00
54872;BME280;43914;57.680;11.982;2024-01-10T06:02:28;102519.91;;;-3.79;100.00
54872;BME280;43914;57.680;11.982;2024-01-10T06:04:54;102515.60;;;-3.75;100.00
54872;BME280;43914;57.680;11.982;2024-01-10T06:07:19;102508.35;;;-3.72;100.00
54872;BME280;43914;57.680;11.982;2024-01-10T06:09:46;102513.73;;;-3.71;100.00
54872;BME280;43914;57.680;11.982;2024-01-10T06:12:13;102519.42;;;-3.68;100.00
54872;BME280;43914;57.680;11.982;2024-01-10T06:14:39;102511.85;;;-3.67;100.00
54872;BME280;43914;57.680;11.982;2024-01-10T06:17:05;102502.47;;;-3.64;100.00
54872;BME280;43914;57.680;11.982;2024-01-10T06:19:31;102496.52;;;-3.64;100.00
54872;BME280;43914;57.680;11.982;2024-01-10T06:21:57;102498.71;;;-3.61;100.00
54872;BME280;43914;57.680;11.982;2024-01-10T06:24:23;102495.11;;;-3.58;100.00
54872;BME280;43914;57.680;11.982;2024-01-10T06:26:48;102491.42;;;-3.57;100.00
54872;BME280;43914;57.680;11.982;2024-01-10T06:29:15;102491.92;;;-3.57;100.00
54872;BME280;43914;57.680;11.982;2024-01-10T06:31:41;102489.94;;;-3.55;100.00
54872;BME280;43914;57.680;11.982;2024-01-10T06:34:07;102484.73;;;-3.51;100.00
54872;BME280;43914;57.680;11.982;2024-01-10T06:36:32;102484.48;;;-3.49;100.00
54872;BME280;43914;57.680;11.982;2024-01-10T06:38:58;102478.02;;;-3.49;100.00
54872;BME280;43914;57.680;11.982;2024-01-10T06:41:23;102476.35;;;-3.47;100.00
54872;BME280;43914;57.680;11.982;2024-01-10T06:43:51;102483.21;;;-3.42;100.00
54872;BME280;43914;57.680;11.982;2024-01-10T06:46:16;102490.20;;;-3.41;100.00
54872;BME280;43914;57.680;11.982;2024-01-10T06:48:42;102494.98;;;-3.38;100.00
54872;BME280;43914;57.680;11.982;2024-01-10T06:51:12;102497.17;;;-3.35;100.00
54872;BME280;43914;57.680;11.982;2024-01-10T06:53:39;102498.18;;;-3.28;100.00
54872;BME280;43914;57.680;11.982;2024-01-10T06:56:06;102488.98;;;-3.25;100.00
54872;BME280;43914;57.680;11.982;2024-01-10T06:58:33;102484.12;;;-3.21;100.00
54872;BME280;43914;57.680;11.982;2024-01-10T07:00:59;102488.98;;;-3.15;100.00
54872;BME280;43914;57.680;11.982;2024-01-10T07:03:30;102503.27;;;-3.12;100.00
54872;BME280;43914;57.680;11.982;2024-01-10T07:05:55;102513.27;;;-3.07;100.00
54872;BME280;43914;57.680;11.982;2024-01-10T07:08:22;102510.33;;;-3.08;100.00
54872;BME280;43914;57.680;11.982;2024-01-10T07:10:48;102498.02;;;-3.07;100.00
54872;BME280;43914;57.680;11.982;2024-01-10T07:13:13;102490.31;;;-3.07;100.00
54872;BME280;43914;57.680;11.982;2024-01-10T07:15:39;102498.44;;;-3.04;100.00
54872;BME280;43914;57.680;11.982;2024-01-10T07:18:05;102498.42;;;-3.03;100.00
54872;BME280;43914;57.680;11.982;2024-01-10T07:20:31;102494.34;;;-3.07;100.00
54872;BME280;43914;57.680;11.982;2024-01-10T07:22:58;102496.15;;;-3.09;100.00
54872;BME280;43914;57.680;11.982;2024-01-10T07:25:25;102497.70;;;-3.08;100.00
54872;BME280;43914;57.680;11.982;2024-01-10T07:27:51;102495.13;;;-3.04;100.00
54872;BME280;43914;57.680;11.982;2024-01-10T07:30:17;102491.02;;;-3.02;100.00
54872;BME280;43914;57.680;11.982;2024-01-10T07:32:43;102489.06;;;-3.02;100.00
54872;BME280;43914;57.680;11.982;2024-01-10T07:35:10;102489.52;;;-2.99;100.00
54872;BME280;43914;57.680;11.982;2024-01-10T07:37:40;102484.40;;;-2.98;100.00
54872;BME280;43914;57.680;11.982;2024-01-10T07:40:07;102483.98;;;-2.96;100.00
54872;BME280;43914;57.680;11.982;2024-01-10T07:42:34;102484.71;;;-2.92;100.00
54872;BME280;43914;57.680;11.982;2024-01-10T07:45:00;102484.09;;;-2.89;100.00
54872;BME280;43914;57.680;11.982;2024-01-10T07:47:30;102482.75;;;-2.86;100.00
54872;BME280;43914;57.680;11.982;2024-01-10T07:49:57;102475.27;;;-2.83;100.00
54872;BME280;43914;57.680;11.982;2024-01-10T07:52:23;102478.86;;;-2.80;100.00
54872;BME280;43914;57.680;11.982;2024-01-10T07:54:49;102479.13;;;-2.78;100.00
54872;BME280;43914;57.680;11.982;2024-01-10T07:57:15;102476.73;;;-2.74;100.00
54872;BME280;43914;57.680;11.982;2024-01-10T07:59:44;102478.48;;;-2.69;100.00
54872;BME280;43914;57.680;11.982;2024-01-10T08:02:09;102479.45;;;-2.67;100.00
54872;BME280;43914;57.680;11.982;2024-01-10T08:04:35;102487.58;;;-2.63;100.00
54872;BME280;43914;57.680;11.982;2024-01-10T08:07:01;102474.20;;;-2.62;100.00
54872;BME280;43914;57.680;11.982;2024-01-10T08:09:27;102475.02;;;-2.61;100.00
54872;BME280;43914;57.680;11.982;2024-01-10T08:11:53;102476.08;;;-2.61;100.00
54872;BME280;43914;57.680;11.982;2024-01-10T08:14:18;102479.17;;;-2.59;100.00
54872;BME280;43914;57.680;11.982;2024-01-10T08:16:44;102475.48;;;-2.59;100.00
54872;BME280;43914;57.680;11.982;2024-01-10T08:19:10;102474.95;;;-2.58;100.00
54872;BME280;43914;57.680;11.982;2024-01-10T08:21:36;102478.84;;;-2.58;100.00
54872;BME280;43914;57.680;11.982;2024-01-10T08:24:03;102477.41;;;-2.58;100.00
54872;BME280;43914;57.680;11.982;2024-01-10T08:26:28;102479.98;;;-2.57;100.00
54872;BME280;43914;57.680;11.982;2024-01-10T08:28:54;102484.81;;;-2.55;100.00
54872;BME280;43914;57.680;11.982;2024-01-10T08:31:20;102484.20;;;-2.53;100.00
54872;BME280;43914;57.680;11.982;2024-01-10T08:33:46;102485.52;;;-2.50;100.00
54872;BME280;43914;57.680;11.982;2024-01-10T08:36:12;102488.95;;;-2.48;100.00
54872;BME280;43914;57.680;11.982;2024-01-10T08:38:40;102485.16;;;-2.44;100.00
54872;BME280;43914;57.680;11.982;2024-01-10T08:41:09;102482.84;;;-2.43;100.00
54872;BME280;43914;57.680;11.982;2024-01-10T08:43:37;102483.32;;;-2.42;100.00
54872;BME280;43914;57.680;11.982;2024-01-10T08:46:02;102485.95;;;-2.42;100.00
54872;BME280;43914;57.680;11.982;2024-01-10T08:48:28;102483.35;;;-2.43;100.00
54872;BME280;43914;57.680;11.982;2024-01-10T08:50:53;102482.23;;;-2.41;100.00
54872;BME280;43914;57.680;11.982;2024-01-10T08:53:22;102482.64;;;-2.38;100.00
54872;BME280;43914;57.680;11.982;2024-01-10T08:55:48;102483.80;;;-2.37;100.00
54872;BME280;43914;57.680;11.982;2024-01-10T08:58:13;102483.80;;;-2.37;100.00
54872;BME280;43914;57.680;11.982;2024-01-10T09:00:39;102488.11;;;-2.34;100.00
54872;BME280;43914;57.680;11.982;2024-01-10T09:03:04;102488.42;;;-2.33;100.00
54872;BME280;43914;57.680;11.982;2024-01-10T09:05:30;102487.86;;;-2.32;100.00
54872;BME280;43914;57.680;11.982;2024-01-10T09:07:55;102480.80;;;-2.30;100.00
54872;BME280;43914;57.680;11.982;2024-01-10T09:10:22;102475.67;;;-2.29;100.00
54872;BME280;43914;57.680;11.982;2024-01-10T09:12:48;102476.34;;;-2.29;100.00
54872;BME280;43914;57.680;11.982;2024-01-10T09:15:14;102484.36;;;-2.28;100.00
54872;BME280;43914;57.680;11.982;2024-01-10T09:17:44;102485.02;;;-2.26;100.00
54872;BME280;43914;57.680;11.982;2024-01-10T09:20:13;102484.72;;;-2.23;100.00
54872;BME280;43914;57.680;11.982;2024-01-10T09:22:39;102477.92;;;-2.24;100.00
54872;BME280;43914;57.680;11.982;2024-01-10T09:25:06;102476.95;;;-2.26;100.00
54872;BME280;43914;57.680;11.982;2024-01-10T09:27:32;102479.01;;;-2.25;100.00
54872;BME280;43914;57.680;11.982;2024-01-10T09:30:02;102477.20;;;-2.24;100.00
54872;BME280;43914;57.680;11.982;2024-01-10T09:32:28;102479.92;;;-2.22;100.00
54872;BME280;43914;57.680;11.982;2024-01-10T09:34:56;102478.09;;;-2.20;100.00
54872;BME280;43914;57.680;11.982;2024-01-10T09:37:22;102478.35;;;-2.17;100.00
54872;BME280;43914;57.680;11.982;2024-01-10T09:39:49;102476.05;;;-2.16;100.00
54872;BME280;43914;57.680;11.982;2024-01-10T09:42:14;102472.55;;;-2.22;100.00
54872;BME280;43914;57.680;11.982;2024-01-10T09:44:41;102472.56;;;-2.26;100.00
54872;BME280;43914;57.680;11.982;2024-01-10T09:47:07;102472.23;;;-2.27;100.00
54872;BME280;43914;57.680;11.982;2024-01-10T09:49:34;102472.02;;;-2.30;100.00
54872;BME280;43914;57.680;11.982;2024-01-10T09:52:04;102467.84;;;-2.32;100.00
54872;BME280;43914;57.680;11.982;2024-01-10T09:54:30;102465.73;;;-2.31;100.00
54872;BME280;43914;57.680;11.982;2024-01-10T09:56:59;102472.47;;;-2.28;100.00
54872;BME280;43914;57.680;11.982;2024-01-10T09:59:25;102476.34;;;-2.24;100.00
54872;BME280;43914;57.680;11.982;2024-01-10T10:01:53;102476.61;;;-2.22;100.00
54872;BME280;43914;57.680;11.982;2024-01-10T10:04:20;102480.63;;;-2.22;100.00
54872;BME280;43914;57.680;11.982;2024-01-10T10:06:45;102478.89;;;-2.22;100.00
54872;BME280;43914;57.680;11.982;2024-01-10T10:09:12;102478.31;;;-2.21;100.00
54872;BME280;43914;57.680;11.982;2024-01-10T10:11:38;102481.41;;;-2.24;100.00
54872;BME280;43914;57.680;11.982;2024-01-10T10:14:18;102485.08;;;-2.28;100.00
54872;BME280;43914;57.680;11.982;2024-01-10T10:16:43;102479.77;;;-2.26;100.00
54872;BME280;43914;57.680;11.982;2024-01-10T10:19:09;102476.85;;;-2.24;100.00
54872;BME280;43914;57.680;11.982;2024-01-10T10:21:37;102478.23;;;-2.23;100.00
54872;BME280;43914;57.680;11.982;2024-01-10T10:24:03;102477.38;;;-2.24;100.00
54872;BME280;43914;57.680;11.982;2024-01-10T10:26:32;102475.61;;;-2.23;100.00
54872;BME280;43914;57.680;11.982;2024-01-10T10:28:58;102485.63;;;-2.19;100.00
54872;BME280;43914;57.680;11.982;2024-01-10T10:31:24;102481.21;;;-2.18;100.00
54872;BME280;43914;57.680;11.982;2024-01-10T10:33:51;102477.75;;;-2.20;100.00
54872;BME280;43914;57.680;11.982;2024-01-10T10:36:17;102471.03;;;-2.19;100.00
54872;BME280;43914;57.680;11.982;2024-01-10T10:38:42;102465.35;;;-2.17;100.00
54872;BME280;43914;57.680;11.982;2024-01-10T10:41:08;102466.25;;;-2.18;100.00
54872;BME280;43914;57.680;11.982;2024-01-10T10:43:37;102472.50;;;-2.15;100.00
54872;BME280;43914;57.680;11.982;2024-01-10T10:46:08;102471.81;;;-2.16;100.00
54872;BME280;43914;57.680;11.982;2024-01-10T10:48:43;102464.37;;;-2.14;100.00
54872;BME280;43914;57.680;11.982;2024-01-10T10:51:10;102463.84;;;-2.13;100.00
54872;BME280;43914;57.680;11.982;2024-01-10T10:53:37;102457.08;;;-2.12;100.00
54872;BME280;43914;57.680;11.982;2024-01-10T10:56:07;102461.96;;;-2.11;100.00
54872;BME280;43914;57.680;11.982;2024-01-10T10:58:35;102462.53;;;-2.12;100.00
54872;BME280;43914;57.680;11.982;2024-01-10T11:01:06;102464.67;;;-2.13;100.00
54872;BME280;43914;57.680;11.982;2024-01-10T11:03:34;102462.58;;;-2.13;100.00
54872;BME280;43914;57.680;11.982;2024-01-10T11:06:02;102455.71;;;-2.12;100.00
54872;BME280;43914;57.680;11.982;2024-01-10T11:08:32;102449.30;;;-2.10;100.00
54872;BME280;43914;57.680;11.982;2024-01-10T11:11:00;102449.34;;;-2.07;100.00
54872;BME280;43914;57.680;11.982;2024-01-10T11:16:48;102435.66;;;-2.12;100.00
54872;BME280;43914;57.680;11.982;2024-01-10T11:19:33;102430.73;;;-2.12;100.00
54872;BME280;43914;57.680;11.982;2024-01-10T11:24:39;102438.71;;;-2.09;100.00
54872;BME280;43914;57.680;11.982;2024-01-10T11:27:13;102436.73;;;-2.12;100.00
54872;BME280;43914;57.680;11.982;2024-01-10T11:29:40;102432.81;;;-2.16;100.00
54872;BME280;43914;57.680;11.982;2024-01-10T11:32:17;102425.94;;;-2.14;100.00
54872;BME280;43914;57.680;11.982;2024-01-10T11:35:18;102423.70;;;-2.12;100.00
54872;BME280;43914;57.680;11.982;2024-01-10T11:37:45;102419.22;;;-2.09;100.00
54872;BME280;43914;57.680;11.982;2024-01-10T11:40:14;102420.87;;;-2.11;100.00
54872;BME280;43914;57.680;11.982;2024-01-10T11:42:46;102422.66;;;-2.08;100.00
54872;BME280;43914;57.680;11.982;2024-01-10T11:45:36;102421.69;;;-2.06;100.00
54872;BME280;43914;57.680;11.982;2024-01-10T11:48:02;102426.66;;;-2.01;100.00
54872;BME280;43914;57.680;11.982;2024-01-10T11:50:27;102426.04;;;-1.99;100.00
54872;BME280;43914;57.680;11.982;2024-01-10T11:52:56;102423.30;;;-1.96;100.00
54872;BME280;43914;57.680;11.982;2024-01-10T11:55:50;102423.19;;;-1.94;100.00
54872;BME280;43914;57.680;11.982;2024-01-10T11:58:19;102429.27;;;-1.92;100.00
54872;BME280;43914;57.680;11.982;2024-01-10T12:00:46;102430.79;;;-1.90;100.00
54872;BME280;43914;57.680;11.982;2024-01-10T12:03:11;102426.67;;;-1.88;100.00
54872;BME280;43914;57.680;11.982;2024-01-10T12:05:37;102426.21;;;-1.85;100.00
54872;BME280;43914;57.680;11.982;2024-01-10T12:08:07;102422.04;;;-1.82;100.00
54872;BME280;43914;57.680;11.982;2024-01-10T12:10:33;102422.45;;;-1.80;100.00
54872;BME280;43914;57.680;11.982;2024-01-10T12:13:03;102425.02;;;-1.82;100.00
54872;BME280;43914;57.680;11.982;2024-01-10T12:15:29;102424.80;;;-1.85;100.00
54872;BME280;43914;57.680;11.982;2024-01-10T12:17:55;102425.42;;;-1.84;100.00
54872;BME280;43914;57.680;11.982;2024-01-10T12:20:20;102425.23;;;-1.83;100.00
54872;BME280;43914;57.680;11.982;2024-01-10T12:22:46;102424.67;;;-1.87;100.00
54872;BME280;43914;57.680;11.982;2024-01-10T12:25:11;102422.56;;;-1.87;100.00
54872;BME280;43914;57.680;11.982;2024-01-10T12:27:37;102421.77;;;-1.85;100.00
54872;BME280;43914;57.680;11.982;2024-01-10T12:30:02;102412.41;;;-1.83;100.00
54872;BME280;43914;57.680;11.982;2024-01-10T12:32:28;102407.91;;;-1.80;100.00
54872;BME280;43914;57.680;11.982;2024-01-10T12:35:01;102403.58;;;-1.78;100.00